Current Weather

Basrah Intl

Basrah Intl, Iraq (ORMM)

Report from: Tuesday, June 18, 2024 11:00 AM UTC
Current time: Tuesday, June 18, 2024 11:39 AM UTC

Nearby weather – Weather history – Daily summaries
Weather forecast

Temperature49.0°C (120.2°F)
Heat index43.5°C (110.2°F)
Dew point0.0°C (32.0°F)
Winds 8 kts (4.1 m/s, 9.2 mph) North (10°)
Clouds Sky clear
Altimeter29.53 in.Hg (1000 mB)
Relative humidity5 %
Density altitude4,291 ft. (1,308 m)
Remarks Ceiling and visibility OK
No significant changes expected in the next two hours
Flight conditions Visual Meteorological Conditions
Raw dataORMM 181100Z 01008KT CAVOK 49/00 Q1000 NOSIG
An error has occurred. This application may no longer respond until reloaded. Reload 🗙